Kelvington, Canada
Current Conditions -  °F | °C
As of 6:00 AM on Wednesday 28 Jan 2015 (Local Time) from CYQV Reporting Station
Overcast Overcast  
Wind Chill:   Ceiling: 900
Heat Index: 18°   Visibility: 9mi
Dew Point: 16°   Wind: 17mph
Humidity: 93%   Direction: 30°NNE
Pressure: 29.9"   Gusts: NA
Location:  52.17°N, 103.52°W
Report Text: CYQV 281200Z AUTO 03015KT 9SM OVC009 M08/M09 A2990 RMK SLP157
Loading
Personal Weather Stations






























Interactive Weather Map New forecast layout! Learn more

10-Day Weather Forecast

Advertisements
Track Severe Weather on mobile